sensor_id;sensor_type;location;lat;lon;timestamp;pressure;altitude;pressure_sealevel;temperature;humidity
40908;BME280;51055;59.436;24.778;2022-08-01T00:01:14;101526.66;;;18.43;59.84
40908;BME280;51055;59.436;24.778;2022-08-01T00:03:41;101522.28;;;18.24;59.38
40908;BME280;51055;59.436;24.778;2022-08-01T00:06:09;101521.38;;;18.15;60.43
40908;BME280;51055;59.436;24.778;2022-08-01T00:08:37;101521.91;;;18.19;60.17
40908;BME280;51055;59.436;24.778;2022-08-01T00:11:05;101530.78;;;18.02;60.68
40908;BME280;51055;59.436;24.778;2022-08-01T00:13:32;101515.66;;;18.01;60.33
40908;BME280;51055;59.436;24.778;2022-08-01T00:16:00;101519.66;;;18.14;60.33
40908;BME280;51055;59.436;24.778;2022-08-01T00:18:28;101519.06;;;17.93;61.02
40908;BME280;51055;59.436;24.778;2022-08-01T00:20:55;101517.59;;;17.81;61.54
40908;BME280;51055;59.436;24.778;2022-08-01T00:23:23;101514.81;;;18.00;61.10
40908;BME280;51055;59.436;24.778;2022-08-01T00:25:51;101520.78;;;17.94;60.93
40908;BME280;51055;59.436;24.778;2022-08-01T00:28:19;101519.06;;;17.76;61.21
40908;BME280;51055;59.436;24.778;2022-08-01T00:30:47;101517.31;;;17.84;61.43
40908;BME280;51055;59.436;24.778;2022-08-01T00:33:15;101513.13;;;17.72;61.67
40908;BME280;51055;59.436;24.778;2022-08-01T00:35:42;101514.06;;;18.08;60.40
40908;BME280;51055;59.436;24.778;2022-08-01T00:38:10;101512.53;;;17.78;60.35
40908;BME280;51055;59.436;24.778;2022-08-01T00:40:38;101518.56;;;18.07;60.09
40908;BME280;51055;59.436;24.778;2022-08-01T00:43:05;101513.28;;;17.98;60.36
40908;BME280;51055;59.436;24.778;2022-08-01T00:45:33;101508.75;;;17.98;59.90
40908;BME280;51055;59.436;24.778;2022-08-01T00:48:01;101501.31;;;18.10;58.43
40908;BME280;51055;59.436;24.778;2022-08-01T00:50:28;101501.69;;;17.97;60.06
40908;BME280;51055;59.436;24.778;2022-08-01T00:52:58;101501.13;;;17.94;59.34
40908;BME280;51055;59.436;24.778;2022-08-01T00:55:27;101497.13;;;17.80;59.51
40908;BME280;51055;59.436;24.778;2022-08-01T00:57:55;101501.56;;;17.72;60.63
40908;BME280;51055;59.436;24.778;2022-08-01T01:00:32;101502.50;;;17.43;60.46
40908;BME280;51055;59.436;24.778;2022-08-01T01:03:20;101502.88;;;17.58;60.31
40908;BME280;51055;59.436;24.778;2022-08-01T01:11:37;101498.25;;;17.78;58.58
40908;BME280;51055;59.436;24.778;2022-08-01T01:14:16;101499.03;;;17.70;57.93
40908;BME280;51055;59.436;24.778;2022-08-01T01:16:46;101491.56;;;17.91;57.05
40908;BME280;51055;59.436;24.778;2022-08-01T01:19:16;101500.34;;;17.84;57.52
40908;BME280;51055;59.436;24.778;2022-08-01T01:24:39;101489.13;;;17.70;57.49
40908;BME280;51055;59.436;24.778;2022-08-01T01:27:24;101485.44;;;17.72;57.86
40908;BME280;51055;59.436;24.778;2022-08-01T01:29:58;101477.84;;;17.67;58.31
40908;BME280;51055;59.436;24.778;2022-08-01T01:32:35;101481.41;;;17.58;58.29
40908;BME280;51055;59.436;24.778;2022-08-01T01:35:10;101475.44;;;17.64;58.61
40908;BME280;51055;59.436;24.778;2022-08-01T01:37:41;101483.41;;;17.56;58.58
40908;BME280;51055;59.436;24.778;2022-08-01T01:40:11;101479.59;;;17.58;58.49
40908;BME280;51055;59.436;24.778;2022-08-01T01:42:41;101475.38;;;17.46;59.31
40908;BME280;51055;59.436;24.778;2022-08-01T01:45:10;101468.00;;;17.58;59.17
40908;BME280;51055;59.436;24.778;2022-08-01T01:47:39;101470.09;;;17.64;58.83
40908;BME280;51055;59.436;24.778;2022-08-01T01:50:10;101464.06;;;17.52;59.33
40908;BME280;51055;59.436;24.778;2022-08-01T01:52:40;101463.13;;;17.44;59.84
40908;BME280;51055;59.436;24.778;2022-08-01T01:55:10;101454.94;;;17.36;60.73
40908;BME280;51055;59.436;24.778;2022-08-01T01:57:40;101458.63;;;17.35;61.17
40908;BME280;51055;59.436;24.778;2022-08-01T02:00:10;101449.28;;;17.39;60.96
40908;BME280;51055;59.436;24.778;2022-08-01T02:02:39;101453.56;;;17.32;61.20
40908;BME280;51055;59.436;24.778;2022-08-01T02:05:09;101454.00;;;17.27;61.93
40908;BME280;51055;59.436;24.778;2022-08-01T02:07:38;101451.47;;;17.26;61.84
40908;BME280;51055;59.436;24.778;2022-08-01T02:10:06;101452.06;;;17.19;62.27
40908;BME280;51055;59.436;24.778;2022-08-01T02:12:39;101438.75;;;17.28;61.92
40908;BME280;51055;59.436;24.778;2022-08-01T02:15:09;101445.41;;;17.24;61.86
40908;BME280;51055;59.436;24.778;2022-08-01T02:17:41;101443.75;;;17.13;61.90
40908;BME280;51055;59.436;24.778;2022-08-01T02:20:09;101442.47;;;17.17;62.06
40908;BME280;51055;59.436;24.778;2022-08-01T02:22:42;101441.72;;;17.25;61.79
40908;BME280;51055;59.436;24.778;2022-08-01T02:25:15;101450.56;;;17.35;60.21
40908;BME280;51055;59.436;24.778;2022-08-01T02:27:52;101447.47;;;17.39;60.34
40908;BME280;51055;59.436;24.778;2022-08-01T02:30:22;101437.59;;;17.40;60.34
40908;BME280;51055;59.436;24.778;2022-08-01T02:33:02;101438.91;;;17.63;58.13
40908;BME280;51055;59.436;24.778;2022-08-01T02:35:33;101444.44;;;17.52;59.50
40908;BME280;51055;59.436;24.778;2022-08-01T02:38:23;101438.97;;;17.44;58.62
40908;BME280;51055;59.436;24.778;2022-08-01T02:40:52;101443.19;;;17.56;57.02
40908;BME280;51055;59.436;24.778;2022-08-01T02:43:23;101442.72;;;17.51;57.13
40908;BME280;51055;59.436;24.778;2022-08-01T02:46:00;101440.88;;;17.88;54.69
40908;BME280;51055;59.436;24.778;2022-08-01T02:48:30;101442.69;;;17.88;54.51
40908;BME280;51055;59.436;24.778;2022-08-01T02:51:01;101433.25;;;17.66;55.57
40908;BME280;51055;59.436;24.778;2022-08-01T02:53:33;101436.91;;;17.65;55.42
40908;BME280;51055;59.436;24.778;2022-08-01T02:56:11;101437.03;;;17.73;55.81
40908;BME280;51055;59.436;24.778;2022-08-01T02:58:40;101435.69;;;17.77;57.51
40908;BME280;51055;59.436;24.778;2022-08-01T03:01:09;101427.03;;;17.65;59.41
40908;BME280;51055;59.436;24.778;2022-08-01T03:03:37;101428.75;;;17.84;59.79
40908;BME280;51055;59.436;24.778;2022-08-01T03:06:06;101422.69;;;17.82;61.23
40908;BME280;51055;59.436;24.778;2022-08-01T03:08:35;101415.47;;;17.83;62.15
40908;BME280;51055;59.436;24.778;2022-08-01T03:11:04;101414.63;;;17.82;62.78
40908;BME280;51055;59.436;24.778;2022-08-01T03:13:33;101423.47;;;17.92;62.98
40908;BME280;51055;59.436;24.778;2022-08-01T03:16:02;101415.41;;;17.92;63.49
40908;BME280;51055;59.436;24.778;2022-08-01T03:18:32;101412.16;;;17.71;65.22
40908;BME280;51055;59.436;24.778;2022-08-01T03:21:00;101409.03;;;17.76;65.01
40908;BME280;51055;59.436;24.778;2022-08-01T03:23:29;101410.19;;;17.91;64.67
40908;BME280;51055;59.436;24.778;2022-08-01T03:26:05;101412.03;;;17.90;64.72
40908;BME280;51055;59.436;24.778;2022-08-01T03:28:33;101420.63;;;17.76;65.10
40908;BME280;51055;59.436;24.778;2022-08-01T03:31:01;101415.31;;;17.84;65.10
40908;BME280;51055;59.436;24.778;2022-08-01T03:33:29;101413.47;;;17.85;65.24
40908;BME280;51055;59.436;24.778;2022-08-01T03:35:59;101414.69;;;17.90;64.70
40908;BME280;51055;59.436;24.778;2022-08-01T03:38:30;101411.56;;;17.95;64.62
40908;BME280;51055;59.436;24.778;2022-08-01T03:41:20;101412.88;;;18.08;63.90
40908;BME280;51055;59.436;24.778;2022-08-01T03:43:56;101410.66;;;18.04;64.05
40908;BME280;51055;59.436;24.778;2022-08-01T03:46:50;101412.03;;;18.08;64.03
40908;BME280;51055;59.436;24.778;2022-08-01T03:49:23;101405.59;;;18.01;63.77
40908;BME280;51055;59.436;24.778;2022-08-01T03:51:53;101403.13;;;18.07;63.74
40908;BME280;51055;59.436;24.778;2022-08-01T03:54:24;101400.00;;;18.12;63.61
40908;BME280;51055;59.436;24.778;2022-08-01T03:56:53;101395.31;;;18.14;63.19
40908;BME280;51055;59.436;24.778;2022-08-01T03:59:21;101395.72;;;18.19;63.00
40908;BME280;51055;59.436;24.778;2022-08-01T04:01:50;101390.41;;;18.09;63.28
40908;BME280;51055;59.436;24.778;2022-08-01T04:04:18;101398.69;;;18.16;62.67
40908;BME280;51055;59.436;24.778;2022-08-01T04:06:45;101396.47;;;18.11;63.19
40908;BME280;51055;59.436;24.778;2022-08-01T04:09:13;101391.88;;;18.21;62.84
40908;BME280;51055;59.436;24.778;2022-08-01T04:11:41;101392.19;;;18.18;63.07
40908;BME280;51055;59.436;24.778;2022-08-01T04:14:08;101389.19;;;18.21;63.29
40908;BME280;51055;59.436;24.778;2022-08-01T04:16:37;101392.84;;;18.38;62.29
40908;BME280;51055;59.436;24.778;2022-08-01T04:19:04;101392.53;;;18.41;61.67
40908;BME280;51055;59.436;24.778;2022-08-01T04:21:35;101397.00;;;18.50;61.25
40908;BME280;51055;59.436;24.778;2022-08-01T04:24:09;101393.31;;;18.51;61.18
40908;BME280;51055;59.436;24.778;2022-08-01T04:26:39;101390.31;;;18.37;61.97
40908;BME280;51055;59.436;24.778;2022-08-01T04:29:08;101386.09;;;18.34;61.63
40908;BME280;51055;59.436;24.778;2022-08-01T04:31:38;101384.84;;;18.46;60.81
40908;BME280;51055;59.436;24.778;2022-08-01T04:34:07;101381.75;;;18.59;60.47
40908;BME280;51055;59.436;24.778;2022-08-01T04:36:38;101379.56;;;18.54;60.52
40908;BME280;51055;59.436;24.778;2022-08-01T04:39:09;101379.78;;;18.61;61.04
40908;BME280;51055;59.436;24.778;2022-08-01T04:41:38;101374.31;;;18.79;59.75
40908;BME280;51055;59.436;24.778;2022-08-01T04:44:07;101370.81;;;18.78;59.78
40908;BME280;51055;59.436;24.778;2022-08-01T04:46:35;101370.50;;;18.81;59.46
40908;BME280;51055;59.436;24.778;2022-08-01T04:49:06;101362.06;;;18.76;59.97
40908;BME280;51055;59.436;24.778;2022-08-01T04:51:35;101370.22;;;18.66;60.56
40908;BME280;51055;59.436;24.778;2022-08-01T04:54:02;101372.81;;;18.76;60.27
40908;BME280;51055;59.436;24.778;2022-08-01T04:56:30;101366.25;;;18.79;60.37
40908;BME280;51055;59.436;24.778;2022-08-01T04:58:58;101360.88;;;18.79;60.71
40908;BME280;51055;59.436;24.778;2022-08-01T05:01:49;101360.38;;;18.75;60.81
40908;BME280;51055;59.436;24.778;2022-08-01T05:04:18;101357.59;;;18.85;60.78
40908;BME280;51055;59.436;24.778;2022-08-01T05:06:45;101352.91;;;18.95;60.56
40908;BME280;51055;59.436;24.778;2022-08-01T05:09:13;101355.78;;;18.93;60.93
40908;BME280;51055;59.436;24.778;2022-08-01T05:11:41;101359.44;;;18.84;61.31
40908;BME280;51055;59.436;24.778;2022-08-01T05:14:08;101358.19;;;18.79;61.73
40908;BME280;51055;59.436;24.778;2022-08-01T05:16:36;101353.41;;;18.90;61.49
40908;BME280;51055;59.436;24.778;2022-08-01T05:19:03;101351.78;;;18.97;60.90
40908;BME280;51055;59.436;24.778;2022-08-01T05:21:34;101348.06;;;18.98;61.39
40908;BME280;51055;59.436;24.778;2022-08-01T05:24:02;101350.59;;;19.00;61.38
40908;BME280;51055;59.436;24.778;2022-08-01T05:26:31;101347.41;;;19.04;61.40
40908;BME280;51055;59.436;24.778;2022-08-01T05:28:59;101348.44;;;19.03;61.66
40908;BME280;51055;59.436;24.778;2022-08-01T05:31:27;101356.84;;;19.08;61.32
40908;BME280;51055;59.436;24.778;2022-08-01T05:33:55;101351.66;;;19.15;61.51
40908;BME280;51055;59.436;24.778;2022-08-01T05:36:23;101349.50;;;19.18;61.27
40908;BME280;51055;59.436;24.778;2022-08-01T05:38:51;101352.75;;;19.30;61.39
40908;BME280;51055;59.436;24.778;2022-08-01T05:41:18;101360.78;;;19.22;61.87
40908;BME280;51055;59.436;24.778;2022-08-01T05:43:46;101360.63;;;19.23;61.56
40908;BME280;51055;59.436;24.778;2022-08-01T05:46:14;101351.78;;;19.05;62.66
40908;BME280;51055;59.436;24.778;2022-08-01T05:48:42;101355.91;;;19.25;62.34
40908;BME280;51055;59.436;24.778;2022-08-01T05:51:09;101353.75;;;19.37;61.99
40908;BME280;51055;59.436;24.778;2022-08-01T05:53:37;101357.28;;;19.38;62.04
40908;BME280;51055;59.436;24.778;2022-08-01T05:56:05;101348.31;;;19.47;62.24
40908;BME280;51055;59.436;24.778;2022-08-01T05:58:32;101342.22;;;19.45;62.33
40908;BME280;51055;59.436;24.778;2022-08-01T06:01:00;101347.56;;;19.37;62.58
40908;BME280;51055;59.436;24.778;2022-08-01T06:03:27;101342.56;;;19.42;62.63
40908;BME280;51055;59.436;24.778;2022-08-01T06:05:59;101341.41;;;19.52;62.27
40908;BME280;51055;59.436;24.778;2022-08-01T06:08:26;101343.44;;;19.58;62.40
40908;BME280;51055;59.436;24.778;2022-08-01T06:10:54;101338.38;;;19.63;62.64
40908;BME280;51055;59.436;24.778;2022-08-01T06:13:22;101338.25;;;19.73;62.23
40908;BME280;51055;59.436;24.778;2022-08-01T06:15:50;101341.88;;;19.48;62.72
40908;BME280;51055;59.436;24.778;2022-08-01T06:18:17;101336.22;;;19.59;63.28
40908;BME280;51055;59.436;24.778;2022-08-01T06:20:46;101337.88;;;19.52;63.21
40908;BME280;51055;59.436;24.778;2022-08-01T06:23:14;101337.91;;;19.60;63.21
40908;BME280;51055;59.436;24.778;2022-08-01T06:25:59;101329.75;;;19.44;64.49
40908;BME280;51055;59.436;24.778;2022-08-01T06:28:26;101322.59;;;19.68;63.00
40908;BME280;51055;59.436;24.778;2022-08-01T06:30:54;101327.50;;;19.73;63.19
40908;BME280;51055;59.436;24.778;2022-08-01T06:33:22;101331.88;;;20.06;62.38
40908;BME280;51055;59.436;24.778;2022-08-01T06:35:50;101322.97;;;20.38;61.46
40908;BME280;51055;59.436;24.778;2022-08-01T06:38:17;101335.88;;;20.67;61.01
40908;BME280;51055;59.436;24.778;2022-08-01T06:40:45;101337.34;;;20.86;59.81
40908;BME280;51055;59.436;24.778;2022-08-01T06:43:12;101332.19;;;21.23;58.53
40908;BME280;51055;59.436;24.778;2022-08-01T06:45:40;101336.78;;;21.45;57.76
40908;BME280;51055;59.436;24.778;2022-08-01T06:48:08;101334.06;;;21.45;58.11
40908;BME280;51055;59.436;24.778;2022-08-01T06:50:35;101329.97;;;21.80;56.90
40908;BME280;51055;59.436;24.778;2022-08-01T06:53:03;101331.56;;;22.35;56.00
40908;BME280;51055;59.436;24.778;2022-08-01T06:55:31;101325.28;;;22.57;54.02
40908;BME280;51055;59.436;24.778;2022-08-01T06:57:59;101319.66;;;23.31;52.80
40908;BME280;51055;59.436;24.778;2022-08-01T07:00:26;101323.53;;;23.79;50.94
40908;BME280;51055;59.436;24.778;2022-08-01T07:02:55;101328.91;;;23.94;50.78
40908;BME280;51055;59.436;24.778;2022-08-01T07:05:24;101323.28;;;23.96;50.31
40908;BME280;51055;59.436;24.778;2022-08-01T07:07:52;101324.88;;;23.48;50.66
40908;BME280;51055;59.436;24.778;2022-08-01T07:10:19;101333.78;;;23.12;51.38
40908;BME280;51055;59.436;24.778;2022-08-01T07:12:47;101337.44;;;22.90;51.78
40908;BME280;51055;59.436;24.778;2022-08-01T07:15:15;101335.63;;;22.68;52.80
40908;BME280;51055;59.436;24.778;2022-08-01T07:17:43;101329.31;;;22.90;52.68
40908;BME280;51055;59.436;24.778;2022-08-01T07:20:12;101334.38;;;23.79;51.43
40908;BME280;51055;59.436;24.778;2022-08-01T07:22:43;101333.81;;;24.26;50.71
40908;BME280;51055;59.436;24.778;2022-08-01T07:25:14;101342.16;;;25.21;47.41
40908;BME280;51055;59.436;24.778;2022-08-01T07:27:42;101341.91;;;25.57;45.92
40908;BME280;51055;59.436;24.778;2022-08-01T07:30:10;101345.13;;;25.33;46.38
40908;BME280;51055;59.436;24.778;2022-08-01T07:32:38;101335.09;;;26.07;45.33
40908;BME280;51055;59.436;24.778;2022-08-01T07:35:06;101335.72;;;26.16;46.10
40908;BME280;51055;59.436;24.778;2022-08-01T07:37:37;101344.91;;;26.67;44.31
40908;BME280;51055;59.436;24.778;2022-08-01T07:40:16;101336.94;;;26.99;43.59
40908;BME280;51055;59.436;24.778;2022-08-01T07:42:46;101330.44;;;26.80;43.27
40908;BME280;51055;59.436;24.778;2022-08-01T07:45:14;101330.44;;;26.80;43.72
40908;BME280;51055;59.436;24.778;2022-08-01T07:47:42;101325.00;;;26.93;42.98
40908;BME280;51055;59.436;24.778;2022-08-01T07:50:10;101322.41;;;27.18;42.83
40908;BME280;51055;59.436;24.778;2022-08-01T07:52:40;101326.69;;;27.52;42.26
40908;BME280;51055;59.436;24.778;2022-08-01T07:55:09;101314.00;;;27.19;42.48
40908;BME280;51055;59.436;24.778;2022-08-01T07:57:38;101307.25;;;28.29;40.79
40908;BME280;51055;59.436;24.778;2022-08-01T08:00:06;101312.56;;;28.24;40.94
40908;BME280;51055;59.436;24.778;2022-08-01T08:02:36;101313.31;;;27.75;41.35
40908;BME280;51055;59.436;24.778;2022-08-01T08:05:04;101312.06;;;27.77;41.00
40908;BME280;51055;59.436;24.778;2022-08-01T08:07:34;101316.00;;;26.99;42.97
40908;BME280;51055;59.436;24.778;2022-08-01T08:10:04;101309.78;;;26.59;43.70
40908;BME280;51055;59.436;24.778;2022-08-01T08:12:32;101310.00;;;26.45;43.46
40908;BME280;51055;59.436;24.778;2022-08-01T08:15:00;101303.94;;;26.56;43.71
40908;BME280;51055;59.436;24.778;2022-08-01T08:17:30;101301.41;;;26.02;44.22
40908;BME280;51055;59.436;24.778;2022-08-01T08:20:06;101311.81;;;25.52;45.17
40908;BME280;51055;59.436;24.778;2022-08-01T08:22:37;101305.28;;;24.93;46.60
40908;BME280;51055;59.436;24.778;2022-08-01T08:25:06;101302.34;;;24.60;48.02
40908;BME280;51055;59.436;24.778;2022-08-01T08:27:35;101294.72;;;24.14;49.85
40908;BME280;51055;59.436;24.778;2022-08-01T08:30:05;101286.50;;;24.08;50.23
40908;BME280;51055;59.436;24.778;2022-08-01T08:32:39;101301.53;;;23.89;49.20
40908;BME280;51055;59.436;24.778;2022-08-01T08:35:08;101301.56;;;23.68;49.66
40908;BME280;51055;59.436;24.778;2022-08-01T08:37:38;101295.41;;;23.59;49.78
40908;BME280;51055;59.436;24.778;2022-08-01T08:40:14;101297.22;;;23.38;50.93
40908;BME280;51055;59.436;24.778;2022-08-01T08:42:42;101291.28;;;23.27;50.80
40908;BME280;51055;59.436;24.778;2022-08-01T08:45:11;101285.75;;;23.35;51.12
40908;BME280;51055;59.436;24.778;2022-08-01T08:47:39;101303.03;;;23.34;50.14
40908;BME280;51055;59.436;24.778;2022-08-01T08:50:09;101302.69;;;23.23;51.20
40908;BME280;51055;59.436;24.778;2022-08-01T08:52:38;101298.75;;;23.25;50.49
40908;BME280;51055;59.436;24.778;2022-08-01T08:55:07;101296.88;;;22.90;51.48
40908;BME280;51055;59.436;24.778;2022-08-01T08:57:39;101287.06;;;22.89;50.72
40908;BME280;51055;59.436;24.778;2022-08-01T09:00:08;101295.63;;;22.93;50.36
40908;BME280;51055;59.436;24.778;2022-08-01T09:02:41;101293.31;;;22.90;50.47
40908;BME280;51055;59.436;24.778;2022-08-01T09:05:11;101300.56;;;23.04;50.84
40908;BME280;51055;59.436;24.778;2022-08-01T09:07:45;101293.28;;;23.04;50.60
40908;BME280;51055;59.436;24.778;2022-08-01T09:10:13;101294.41;;;23.10;51.07
40908;BME280;51055;59.436;24.778;2022-08-01T09:13:11;101280.59;;;23.05;50.57
40908;BME280;51055;59.436;24.778;2022-08-01T09:18:38;101274.09;;;22.99;50.92
40908;BME280;51055;59.436;24.778;2022-08-01T09:21:21;101282.41;;;22.83;51.02
40908;BME280;51055;59.436;24.778;2022-08-01T09:23:53;101299.19;;;22.78;50.91
40908;BME280;51055;59.436;24.778;2022-08-01T09:26:29;101277.63;;;22.41;51.59
40908;BME280;51055;59.436;24.778;2022-08-01T09:28:58;101280.38;;;22.70;51.47
40908;BME280;51055;59.436;24.778;2022-08-01T09:31:27;101280.91;;;22.80;50.56
40908;BME280;51055;59.436;24.778;2022-08-01T09:34:05;101276.91;;;22.76;49.57
40908;BME280;51055;59.436;24.778;2022-08-01T09:37:11;101277.34;;;22.51;50.41
40908;BME280;51055;59.436;24.778;2022-08-01T09:39:40;101284.03;;;22.55;50.03
40908;BME280;51055;59.436;24.778;2022-08-01T09:42:24;101281.88;;;22.36;50.28
40908;BME280;51055;59.436;24.778;2022-08-01T09:44:55;101277.72;;;22.48;50.50
40908;BME280;51055;59.436;24.778;2022-08-01T09:47:37;101277.72;;;22.48;50.45
40908;BME280;51055;59.436;24.778;2022-08-01T09:50:06;101280.41;;;22.33;51.64
40908;BME280;51055;59.436;24.778;2022-08-01T09:52:37;101273.72;;;22.06;51.35
40908;BME280;51055;59.436;24.778;2022-08-01T09:55:08;101271.91;;;22.36;51.03
40908;BME280;51055;59.436;24.778;2022-08-01T09:57:35;101270.53;;;22.40;51.45
40908;BME280;51055;59.436;24.778;2022-08-01T10:00:04;101270.81;;;22.30;51.01
40908;BME280;51055;59.436;24.778;2022-08-01T10:02:33;101262.22;;;22.42;50.95
40908;BME280;51055;59.436;24.778;2022-08-01T10:05:06;101254.00;;;22.64;50.89
40908;BME280;51055;59.436;24.778;2022-08-01T10:10:24;101252.25;;;22.57;49.81
40908;BME280;51055;59.436;24.778;2022-08-01T10:12:59;101238.56;;;22.44;50.32
40908;BME280;51055;59.436;24.778;2022-08-01T10:15:27;101240.78;;;22.40;49.81
40908;BME280;51055;59.436;24.778;2022-08-01T10:18:06;101237.50;;;22.45;49.85
40908;BME280;51055;59.436;24.778;2022-08-01T10:20:54;101227.63;;;22.22;48.81
40908;BME280;51055;59.436;24.778;2022-08-01T10:23:38;101229.25;;;22.31;48.82
40908;BME280;51055;59.436;24.778;2022-08-01T10:26:09;101215.72;;;22.31;47.95
40908;BME280;51055;59.436;24.778;2022-08-01T10:28:38;101201.81;;;22.05;49.63
40908;BME280;51055;59.436;24.778;2022-08-01T10:31:07;101199.31;;;22.33;47.23
40908;BME280;51055;59.436;24.778;2022-08-01T10:33:39;101218.13;;;22.12;46.30
40908;BME280;51055;59.436;24.778;2022-08-01T10:36:20;101208.03;;;22.06;46.84
40908;BME280;51055;59.436;24.778;2022-08-01T10:38:49;101206.09;;;22.00;47.86
40908;BME280;51055;59.436;24.778;2022-08-01T10:41:18;101205.13;;;21.93;48.06
40908;BME280;51055;59.436;24.778;2022-08-01T10:43:46;101199.56;;;21.94;47.94
40908;BME280;51055;59.436;24.778;2022-08-01T10:46:14;101200.88;;;21.98;45.85
40908;BME280;51055;59.436;24.778;2022-08-01T10:48:55;101192.78;;;21.98;46.19
40908;BME280;51055;59.436;24.778;2022-08-01T10:51:27;101197.16;;;21.76;46.27
40908;BME280;51055;59.436;24.778;2022-08-01T10:54:16;101205.13;;;21.93;46.23
40908;BME280;51055;59.436;24.778;2022-08-01T10:56:48;101201.06;;;21.97;45.81
40908;BME280;51055;59.436;24.778;2022-08-01T10:59:22;101207.22;;;22.05;46.22
40908;BME280;51055;59.436;24.778;2022-08-01T11:02:10;101185.63;;;22.05;46.31
40908;BME280;51055;59.436;24.778;2022-08-01T11:05:04;101199.78;;;21.85;46.82
40908;BME280;51055;59.436;24.778;2022-08-01T11:07:54;101181.69;;;22.08;46.45
40908;BME280;51055;59.436;24.778;2022-08-01T11:10:28;101184.03;;;22.11;46.58
40908;BME280;51055;59.436;24.778;2022-08-01T11:13:01;101183.34;;;22.09;46.68
40908;BME280;51055;59.436;24.778;2022-08-01T11:15:31;101172.91;;;22.06;47.04
40908;BME280;51055;59.436;24.778;2022-08-01T11:18:01;101167.06;;;22.17;46.99
40908;BME280;51055;59.436;24.778;2022-08-01T11:20:33;101163.16;;;22.19;46.68
40908;BME280;51055;59.436;24.778;2022-08-01T11:23:15;101163.06;;;22.13;46.85
40908;BME280;51055;59.436;24.778;2022-08-01T11:28:33;101157.09;;;22.03;47.27
40908;BME280;51055;59.436;24.778;2022-08-01T11:41:28;101145.81;;;22.28;47.29
40908;BME280;51055;59.436;24.778;2022-08-01T11:52:33;101137.63;;;22.07;48.77
40908;BME280;51055;59.436;24.778;2022-08-01T11:55:08;101133.72;;;22.10;47.44
40908;BME280;51055;59.436;24.778;2022-08-01T11:57:38;101128.13;;;21.97;47.20
40908;BME280;51055;59.436;24.778;2022-08-01T12:00:11;101151.59;;;22.11;47.34
40908;BME280;51055;59.436;24.778;2022-08-01T12:02:45;101138.22;;;21.80;47.76
40908;BME280;51055;59.436;24.778;2022-08-01T12:05:16;101144.00;;;21.77;47.58
40908;BME280;51055;59.436;24.778;2022-08-01T12:07:52;101147.50;;;22.00;47.36
40908;BME280;51055;59.436;24.778;2022-08-01T12:10:23;101124.53;;;21.81;47.49
40908;BME280;51055;59.436;24.778;2022-08-01T12:12:53;101126.56;;;21.79;47.85
40908;BME280;51055;59.436;24.778;2022-08-01T12:15:23;101124.63;;;21.73;48.80
40908;BME280;51055;59.436;24.778;2022-08-01T12:18:00;101134.13;;;21.84;48.86
40908;BME280;51055;59.436;24.778;2022-08-01T12:20:33;101113.75;;;21.81;49.36
40908;BME280;51055;59.436;24.778;2022-08-01T12:23:12;101108.38;;;21.96;49.45
40908;BME280;51055;59.436;24.778;2022-08-01T12:25:40;101097.47;;;21.90;49.57
40908;BME280;51055;59.436;24.778;2022-08-01T12:28:11;101111.53;;;21.85;49.71
40908;BME280;51055;59.436;24.778;2022-08-01T12:30:42;101122.97;;;21.72;50.17
40908;BME280;51055;59.436;24.778;2022-08-01T12:33:17;101117.47;;;21.80;49.60
40908;BME280;51055;59.436;24.778;2022-08-01T12:35:45;101108.94;;;21.54;50.71
40908;BME280;51055;59.436;24.778;2022-08-01T12:38:16;101100.59;;;21.64;49.72
40908;BME280;51055;59.436;24.778;2022-08-01T12:40:47;101103.56;;;21.54;50.13
40908;BME280;51055;59.436;24.778;2022-08-01T12:43:21;101111.97;;;21.59;50.48
40908;BME280;51055;59.436;24.778;2022-08-01T12:45:59;101110.00;;;21.30;51.04
40908;BME280;51055;59.436;24.778;2022-08-01T12:48:30;101116.09;;;21.33;51.28
40908;BME280;51055;59.436;24.778;2022-08-01T12:50:59;101106.44;;;21.15;51.70
40908;BME280;51055;59.436;24.778;2022-08-01T12:53:33;101104.22;;;21.19;51.88
40908;BME280;51055;59.436;24.778;2022-08-01T12:56:08;101106.44;;;21.07;52.81
40908;BME280;51055;59.436;24.778;2022-08-01T12:58:38;101102.69;;;21.39;52.09
40908;BME280;51055;59.436;24.778;2022-08-01T13:01:08;101099.53;;;21.50;51.35
40908;BME280;51055;59.436;24.778;2022-08-01T13:03:37;101105.50;;;21.60;50.67
40908;BME280;51055;59.436;24.778;2022-08-01T13:06:13;101095.66;;;21.53;50.82
40908;BME280;51055;59.436;24.778;2022-08-01T13:08:44;101098.47;;;21.22;51.31
40908;BME280;51055;59.436;24.778;2022-08-01T13:11:14;101102.09;;;21.29;51.05
40908;BME280;51055;59.436;24.778;2022-08-01T13:13:50;101095.28;;;21.18;51.76
40908;BME280;51055;59.436;24.778;2022-08-01T13:16:21;101101.31;;;21.20;51.98
40908;BME280;51055;59.436;24.778;2022-08-01T13:19:05;101093.66;;;21.47;51.84
40908;BME280;51055;59.436;24.778;2022-08-01T13:21:34;101091.84;;;21.62;50.92
40908;BME280;51055;59.436;24.778;2022-08-01T13:24:28;101101.81;;;21.61;50.75
40908;BME280;51055;59.436;24.778;2022-08-01T13:26:58;101092.84;;;21.61;50.90
40908;BME280;51055;59.436;24.778;2022-08-01T13:29:39;101092.84;;;21.61;50.34
40908;BME280;51055;59.436;24.778;2022-08-01T13:32:18;101106.56;;;21.59;50.26
40908;BME280;51055;59.436;24.778;2022-08-01T13:35:05;101094.38;;;21.26;51.96
40908;BME280;51055;59.436;24.778;2022-08-01T13:37:35;101098.69;;;21.35;50.97